Guatrache, Argentina
Current Conditions -  °F | °C
As of 2:00 PM on Friday 31 Oct 2014 (Local Time) from SAZN Reporting Station
Clear Clear  
Wind Chill: 16°   Ceiling: Unl
Heat Index: 16°   Visibility: 6mi
Dew Point: -5°   Wind: 6mph
Humidity: 23%   Direction: 270°W
Pressure: 30.09"   Gusts: NA
Location:  37.67°S, 63.53°W
Report Text: SAZN 311700Z 27005KT CAVOK 16/M05 Q1019
Loading
Personal Weather Stations






























Interactive Weather Map
Tropical Storm Tracking
New forecast layout! Learn more

10-Day Weather Forecast

Advertisements
Track Severe Weather on mobile